| time (UTC) | temp F | wind direction | speed knots | gust knots | rain 1hr in | rain 24hr in | rain mn in | humidity % | barometer mb |
| 20260508153056 | 59 | 200 | 0.0 | 2.6 | 0.00 | 0.00 | 0.00 | 42 | 1009.5 |
| 20260508151602 | 60 | 258 | 0.9 | 5.2 | 0.00 | 0.00 | 0.00 | 44 | 1009.6 |
| 20260508150055 | 59 | 278 | 0.9 | 4.3 | 0.00 | 0.00 | 0.00 | 44 | 1009.7 |
| 20260508144556 | 58 | 259 | 0.0 | 1.7 | 0.00 | 0.00 | 0.00 | 44 | 1009.8 |
| 20260508143054 | 55 | 254 | 0.0 | 0.9 | 0.00 | 0.00 | 0.00 | 47 | 1009.8 |
| 20260508141554 | 55 | 274 | 0.0 | 3.5 | 0.00 | 0.00 | 0.00 | 48 | 1010.0 |
| 20260508140054 | 54 | 289 | 0.0 | 2.6 | 0.00 | 0.00 | 0.00 | 49 | 1010.1 |
| 20260508134559 | 53 | 304 | 0.9 | 3.5 | 0.00 | 0.00 | 0.00 | 46 | 1010.2 |
| 20260508133104 | 54 | 259 | 0.0 | 0.9 | 0.00 | 0.00 | 0.00 | 50 | 1010.2 |
| 20260508131558 | 55 | 272 | 0.0 | 1.7 | 0.00 | 0.00 | 0.00 | 48 | 1010.2 |
| 20260508130055 | 54 | 262 | 0.9 | 3.5 | 0.00 | 0.00 | 0.00 | 47 | 1010.2 |
| 20260508124555 | 56 | 271 | 0.0 | 2.6 | 0.00 | 0.00 | 0.00 | 47 | 1010.1 |
| 20260508123106 | 55 | 284 | 0.0 | 3.5 | 0.00 | 0.00 | 0.00 | 52 | 1010.0 |
| 20260508121555 | 55 | 25 | 0.0 | 2.6 | 0.00 | 0.00 | 0.00 | 52 | 1010.1 |
| 20260508120100 | 54 | 0 | 0.0 | 0.0 | 0.00 | 0.00 | 0.00 | 55 | 1010.1 |
| 20260508114554 | 52 | 0 | 0.0 | 0.9 | 0.00 | 0.00 | 0.00 | 58 | 1010.1 |
| 20260508113054 | 50 | 233 | 0.0 | 0.9 | 0.00 | 0.00 | 0.00 | 59 | 1009.9 |
| 20260508111601 | 48 | 0 | 0.0 | 0.9 | 0.00 | 0.00 | 0.00 | 66 | 1009.9 |
| 20260508110052 | 46 | 0 | 0.0 | 0.0 | 0.00 | 0.00 | 0.00 | 69 | 1009.9 |
| 20260508104555 | 44 | 0 | 0.0 | 0.0 | 0.00 | 0.00 | 0.00 | 73 | 1009.7 |
| 20260508103053 | 39 | 0 | 0.0 | 0.0 | 0.00 | 0.00 | 0.00 | 83 | 1009.7 |
| 20260508101555 | 35 | 0 | 0.0 | 0.0 | 0.00 | 0.00 | 0.00 | 89 | 1009.4 |
| 20260508100056 | 34 | 0 | 0.0 | 0.0 | 0.00 | 0.00 | 0.00 | 87 | 1009.3 |
| 20260508094605 | 34 | 0 | 0.0 | 0.0 | 0.00 | 0.00 | 0.00 | 88 | 1009.3 |
| 20260508093052 | 34 | 0 | 0.0 | 0.0 | 0.00 | 0.00 | 0.00 | 89 | 1009.2 |
| 20260508091607 | 33 | 0 | 0.0 | 0.0 | 0.00 | 0.00 | 0.00 | 89 | 1009.1 |
| 20260508090104 | 34 | 0 | 0.0 | 0.0 | 0.00 | 0.00 | 0.00 | 87 | 1009.0 |
| 20260508084558 | 34 | 0 | 0.0 | 0.0 | 0.00 | 0.00 | 0.00 | 85 | 1009.0 |
| 20260508083103 | 34 | 0 | 0.0 | 0.0 | 0.00 | 0.00 | 0.00 | 82 | 1009.1 |
| 20260508081635 | 35 | 0 | 0.0 | 0.0 | 0.00 | 0.00 | 0.00 | 81 | 1008.8 |
| 20260508080100 | 34 | 0 | 0.0 | 0.0 | 0.00 | 0.00 | 0.00 | 85 | 1008.7 |
| 20260508074555 | 35 | 0 | 0.0 | 0.0 | 0.00 | 0.00 | 0.00 | 83 | 1008.2 |
| 20260508073101 | 35 | 0 | 0.0 | 0.0 | 0.00 | 0.00 | 0.00 | 82 | 1008.1 |
| 20260508071558 | 35 | 0 | 0.0 | 0.0 | 0.00 | 0.00 | 0.00 | 82 | 1008.0 |
| 20260508064558 | 37 | 0 | 0.0 | 0.0 | 0.00 | 0.00 | 0.00 | 78 | 1007.8 |
| 20260508063057 | 37 | 0 | 0.0 | 0.0 | 0.00 | 0.00 | 0.00 | 78 | 1008.0 |
| 20260508061558 | 38 | 0 | 0.0 | 0.0 | 0.00 | 0.00 | 0.00 | 75 | 1008.1 |
| 20260508054600 | 37 | 0 | 0.0 | 0.0 | 0.00 | 0.00 | 0.00 | 83 | 1008.1 |
| 20260508053103 | 37 | 0 | 0.0 | 0.0 | 0.00 | 0.00 | 0.00 | 82 | 1008.3 |
| 20260508051554 | 39 | 0 | 0.0 | 0.0 | 0.00 | 0.00 | 0.00 | 79 | 1008.3 |
| 20260508050057 | 39 | 0 | 0.0 | 0.0 | 0.00 | 0.00 | 0.00 | 79 | 1008.7 |
| 20260508044606 | 40 | 0 | 0.0 | 0.0 | 0.00 | 0.00 | 0.00 | 77 | 1008.6 |
| 20260508043059 | 40 | 0 | 0.0 | 0.0 | 0.00 | 0.00 | 0.00 | 74 | 1008.8 |
| 20260508041556 | 41 | 0 | 0.0 | 0.0 | 0.00 | 0.00 | 0.00 | 73 | 1008.8 |
| 20260508034555 | 42 | 0 | 0.0 | 0.0 | 0.00 | 0.02 | 0.00 | 70 | 1008.6 |
| 20260508033053 | 42 | 0 | 0.0 | 0.0 | 0.00 | 0.02 | 0.00 | 70 | 1008.7 |
| 20260508031551 | 43 | 0 | 0.0 | 0.9 | 0.00 | 0.02 | 0.00 | 73 | 1008.7 |
| 20260508030100 | 43 | 0 | 0.0 | 0.0 | 0.00 | 0.02 | 0.00 | 74 | 1008.6 |
| 20260508024553 | 44 | 0 | 0.0 | 0.0 | 0.00 | 0.03 | 0.00 | 74 | 1008.6 |
| 20260508023055 | 44 | 0 | 0.0 | 0.0 | 0.00 | 0.03 | 0.00 | 70 | 1008.7 |
| 20260508021555 | 45 | 0 | 0.0 | 0.0 | 0.00 | 0.03 | 0.00 | 67 | 1008.5 |
| 20260508020053 | 45 | 0 | 0.0 | 0.0 | 0.00 | 0.03 | 0.00 | 66 | 1008.7 |
| 20260508014552 | 45 | 0 | 0.0 | 0.0 | 0.00 | 0.03 | 0.00 | 69 | 1008.7 |
| 20260508013054 | 44 | 0 | 0.0 | 0.0 | 0.00 | 0.03 | 0.00 | 70 | 1008.2 |
| 20260508011604 | 44 | 0 | 0.0 | 0.0 | 0.00 | 0.03 | 0.00 | 76 | 1008.0 |
| 20260508010053 | 45 | 0 | 0.0 | 0.0 | 0.00 | 0.03 | 0.00 | 75 | 1007.8 |
| 20260508004554 | 46 | 0 | 0.0 | 0.0 | 0.00 | 0.03 | 0.00 | 67 | 1007.6 |
| 20260508003100 | 47 | 0 | 0.0 | 0.0 | 0.00 | 0.03 | 0.00 | 64 | 1007.4 |
| 20260508001553 | 48 | 0 | 0.0 | 0.9 | 0.00 | 0.03 | 0.00 | 60 | 1007.5 |
| 20260508000054 | 49 | 0 | 0.0 | 0.0 | 0.00 | 0.03 | 0.00 | 62 | 1007.4 |
| 20260507234601 | 51 | 0 | 0.0 | 0.9 | 0.00 | 0.03 | 0.00 | 55 | 1007.1 |
| 20260507233057 | 53 | 0 | 0.0 | 0.9 | 0.00 | 0.03 | 0.00 | 49 | 1007.0 |
| 20260507231604 | 54 | 0 | 0.0 | 1.7 | 0.00 | 0.03 | 0.00 | 48 | 1006.9 |
| 20260507230100 | 55 | 221 | 0.0 | 0.9 | 0.00 | 0.03 | 0.00 | 46 | 1006.8 |
| 20260507224600 | 56 | 287 | 0.9 | 3.5 | 0.00 | 0.09 | 0.00 | 41 | 1006.7 |
| 20260507223057 | 57 | 238 | 0.0 | 3.5 | 0.00 | 0.09 | 0.00 | 44 | 1006.5 |
| 20260507221554 | 58 | 304 | 0.0 | 2.6 | 0.00 | 0.09 | 0.00 | 43 | 1006.4 |
| 20260507220053 | 59 | 283 | 0.0 | 1.7 | 0.00 | 0.09 | 0.00 | 41 | 1006.1 |
| 20260507214559 | 60 | 290 | 0.0 | 3.5 | 0.00 | 0.14 | 0.00 | 38 | 1006.0 |
| 20260507213054 | 59 | 246 | 0.0 | 2.6 | 0.00 | 0.14 | 0.00 | 38 | 1006.0 |
| 20260507211557 | 60 | 43 | 0.9 | 2.6 | 0.00 | 0.14 | 0.00 | 40 | 1006.0 |
| 20260507210057 | 60 | 255 | 0.9 | 5.2 | 0.00 | 0.14 | 0.00 | 41 | 1006.1 |
| 20260507204557 | 61 | 323 | 0.9 | 3.5 | 0.00 | 0.21 | 0.00 | 39 | 1006.1 |
| 20260507203108 | 62 | 265 | 0.0 | 1.7 | 0.00 | 0.21 | 0.00 | 40 | 1005.9 |
| 20260507201605 | 63 | 280 | 0.9 | 2.6 | 0.00 | 0.21 | 0.00 | 37 | 1005.9 |
| 20260507200100 | 63 | 0 | 0.9 | 3.5 | 0.00 | 0.21 | 0.00 | 43 | 1006.0 |
| 20260507194556 | 63 | 291 | 0.9 | 2.6 | 0.00 | 0.22 | 0.00 | 37 | 1006.1 |
| 20260507193110 | 64 | 239 | 0.0 | 2.6 | 0.00 | 0.22 | 0.00 | 41 | 1006.1 |
| 20260507191554 | 63 | 252 | 0.9 | 5.2 | 0.00 | 0.22 | 0.00 | 40 | 1006.1 |
| 20260507190054 | 63 | 304 | 0.9 | 3.5 | 0.00 | 0.22 | 0.00 | 36 | 1006.3 |
| 20260507184551 | 64 | 288 | 0.9 | 2.6 | 0.00 | 0.29 | 0.00 | 40 | 1006.6 |
| 20260507183105 | 63 | 304 | 0.9 | 3.5 | 0.00 | 0.29 | 0.00 | 35 | 1006.8 |
| 20260507181552 | 64 | 285 | 0.9 | 2.6 | 0.00 | 0.29 | 0.00 | 41 | 1007.1 |
| 20260507180055 | 63 | 276 | 0.9 | 3.5 | 0.00 | 0.29 | 0.00 | 37 | 1007.0 |
| 20260507174604 | 62 | 289 | 2.6 | 7.0 | 0.00 | 0.32 | 0.00 | 38 | 1007.1 |
| 20260507173102 | 63 | 284 | 1.7 | 5.2 | 0.00 | 0.32 | 0.00 | 36 | 1006.8 |
| 20260507171611 | 63 | 279 | 0.9 | 4.3 | 0.00 | 0.32 | 0.00 | 35 | 1006.8 |
| 20260507170058 | 64 | 298 | 0.9 | 7.0 | 0.00 | 0.32 | 0.00 | 42 | 1007.1 |
| 20260507164611 | 63 | 281 | 1.7 | 3.5 | 0.00 | 0.32 | 0.00 | 38 | 1007.1 |
| 20260507163059 | 63 | 272 | 0.9 | 3.5 | 0.00 | 0.32 | 0.00 | 41 | 1007.2 |
| 20260507161612 | 62 | 253 | 0.9 | 4.3 | 0.00 | 0.32 | 0.00 | 43 | 1007.4 |
| 20260507154554 | 62 | 245 | 0.9 | 3.5 | 0.00 | 0.32 | 0.00 | 49 | 1007.7 |